sensor_id;sensor_type;location;lat;lon;timestamp;pressure;altitude;pressure_sealevel;temperature;humidity
7668;BME280;3876;42.204;24.686;2023-07-13T00:01:29;99479.50;;;27.76;75.09
7668;BME280;3876;42.204;24.686;2023-07-13T00:03:56;99488.09;;;27.78;74.96
7668;BME280;3876;42.204;24.686;2023-07-13T00:06:24;99490.03;;;27.76;74.33
7668;BME280;3876;42.204;24.686;2023-07-13T00:08:52;99488.97;;;27.69;75.30
7668;BME280;3876;42.204;24.686;2023-07-13T00:11:18;99484.31;;;27.63;75.23
7668;BME280;3876;42.204;24.686;2023-07-13T00:13:45;99489.06;;;27.59;75.68
7668;BME280;3876;42.204;24.686;2023-07-13T00:16:12;99473.06;;;27.53;75.44
7668;BME280;3876;42.204;24.686;2023-07-13T00:18:40;99472.03;;;27.46;76.23
7668;BME280;3876;42.204;24.686;2023-07-13T00:21:07;99476.34;;;27.37;77.98
7668;BME280;3876;42.204;24.686;2023-07-13T00:23:36;99471.84;;;27.30;79.74
7668;BME280;3876;42.204;24.686;2023-07-13T00:26:07;99455.59;;;27.17;82.02
7668;BME280;3876;42.204;24.686;2023-07-13T00:28:35;99471.69;;;27.13;84.54
7668;BME280;3876;42.204;24.686;2023-07-13T00:31:02;99473.31;;;27.14;85.24
7668;BME280;3876;42.204;24.686;2023-07-13T00:33:29;99460.88;;;27.17;85.10
7668;BME280;3876;42.204;24.686;2023-07-13T00:35:56;99457.53;;;27.14;86.53
7668;BME280;3876;42.204;24.686;2023-07-13T00:38:23;99450.63;;;27.13;86.86
7668;BME280;3876;42.204;24.686;2023-07-13T00:40:50;99461.47;;;27.10;86.95
7668;BME280;3876;42.204;24.686;2023-07-13T00:43:19;99452.63;;;27.02;87.52
7668;BME280;3876;42.204;24.686;2023-07-13T00:46:16;99456.50;;;27.07;86.59
7668;BME280;3876;42.204;24.686;2023-07-13T00:48:44;99457.06;;;27.01;86.70
7668;BME280;3876;42.204;24.686;2023-07-13T00:51:16;99457.66;;;26.95;87.39
7668;BME280;3876;42.204;24.686;2023-07-13T00:53:44;99455.81;;;26.88;87.93
7668;BME280;3876;42.204;24.686;2023-07-13T00:56:11;99448.59;;;26.80;87.61
7668;BME280;3876;42.204;24.686;2023-07-13T00:58:39;99452.63;;;26.84;86.67
7668;BME280;3876;42.204;24.686;2023-07-13T01:01:07;99450.97;;;26.83;85.96
7668;BME280;3876;42.204;24.686;2023-07-13T01:03:34;99445.72;;;26.83;86.11
7668;BME280;3876;42.204;24.686;2023-07-13T01:06:01;99448.50;;;26.82;85.84
7668;BME280;3876;42.204;24.686;2023-07-13T01:08:28;99445.59;;;26.75;85.99
7668;BME280;3876;42.204;24.686;2023-07-13T01:10:56;99445.59;;;26.75;86.65
7668;BME280;3876;42.204;24.686;2023-07-13T01:13:23;99450.03;;;26.75;87.45
7668;BME280;3876;42.204;24.686;2023-07-13T01:15:53;99444.59;;;26.76;87.35
7668;BME280;3876;42.204;24.686;2023-07-13T01:18:24;99443.94;;;26.74;88.44
7668;BME280;3876;42.204;24.686;2023-07-13T01:20:54;99438.44;;;26.68;88.53
7668;BME280;3876;42.204;24.686;2023-07-13T01:23:22;99434.91;;;26.59;87.77
7668;BME280;3876;42.204;24.686;2023-07-13T01:25:49;99440.91;;;26.69;87.84
7668;BME280;3876;42.204;24.686;2023-07-13T01:28:16;99429.09;;;26.55;88.88
7668;BME280;3876;42.204;24.686;2023-07-13T01:30:45;99433.25;;;26.58;88.83
7668;BME280;3876;42.204;24.686;2023-07-13T01:33:12;99442.25;;;26.55;89.13
7668;BME280;3876;42.204;24.686;2023-07-13T01:35:39;99449.31;;;26.55;88.77
7668;BME280;3876;42.204;24.686;2023-07-13T01:38:09;99437.13;;;26.54;88.84
7668;BME280;3876;42.204;24.686;2023-07-13T01:40:36;99426.13;;;26.41;88.53
7668;BME280;3876;42.204;24.686;2023-07-13T01:43:03;99419.78;;;26.34;89.92
7668;BME280;3876;42.204;24.686;2023-07-13T01:45:31;99442.84;;;26.40;90.73
7668;BME280;3876;42.204;24.686;2023-07-13T01:47:58;99448.56;;;26.35;90.60
7668;BME280;3876;42.204;24.686;2023-07-13T01:50:25;99440.56;;;26.27;91.23
7668;BME280;3876;42.204;24.686;2023-07-13T01:52:52;99436.44;;;26.25;90.96
7668;BME280;3876;42.204;24.686;2023-07-13T01:55:21;99438.38;;;26.23;90.43
7668;BME280;3876;42.204;24.686;2023-07-13T01:57:48;99446.41;;;26.21;90.99
7668;BME280;3876;42.204;24.686;2023-07-13T02:00:15;99439.22;;;26.14;90.81
7668;BME280;3876;42.204;24.686;2023-07-13T02:02:42;99451.13;;;26.18;90.57
7668;BME280;3876;42.204;24.686;2023-07-13T02:05:09;99458.03;;;26.19;89.89
7668;BME280;3876;42.204;24.686;2023-07-13T02:07:37;99451.94;;;26.08;90.45
7668;BME280;3876;42.204;24.686;2023-07-13T02:10:04;99468.13;;;26.14;90.71
7668;BME280;3876;42.204;24.686;2023-07-13T02:12:33;99464.13;;;26.09;90.32
7668;BME280;3876;42.204;24.686;2023-07-13T02:15:00;99465.78;;;26.10;90.33
7668;BME280;3876;42.204;24.686;2023-07-13T02:17:27;99465.09;;;26.08;90.92
7668;BME280;3876;42.204;24.686;2023-07-13T02:19:54;99473.69;;;26.10;90.40
7668;BME280;3876;42.204;24.686;2023-07-13T02:22:21;99473.69;;;26.10;89.84
7668;BME280;3876;42.204;24.686;2023-07-13T02:24:48;99476.03;;;26.04;91.14
7668;BME280;3876;42.204;24.686;2023-07-13T02:27:15;99468.44;;;25.91;91.99
7668;BME280;3876;42.204;24.686;2023-07-13T02:29:43;99465.44;;;25.77;91.60
7668;BME280;3876;42.204;24.686;2023-07-13T02:32:10;99444.31;;;25.69;91.42
7668;BME280;3876;42.204;24.686;2023-07-13T02:34:36;99458.78;;;25.82;91.27
7668;BME280;3876;42.204;24.686;2023-07-13T02:37:03;99465.03;;;25.81;90.80
7668;BME280;3876;42.204;24.686;2023-07-13T02:39:30;99466.66;;;25.82;89.99
7668;BME280;3876;42.204;24.686;2023-07-13T02:41:58;99467.50;;;25.83;89.88
7668;BME280;3876;42.204;24.686;2023-07-13T02:44:25;99472.75;;;25.73;90.32
7668;BME280;3876;42.204;24.686;2023-07-13T02:46:53;99479.69;;;25.74;90.63
7668;BME280;3876;42.204;24.686;2023-07-13T02:49:20;99471.66;;;25.66;89.82
7668;BME280;3876;42.204;24.686;2023-07-13T02:51:47;99481.59;;;25.72;89.83
7668;BME280;3876;42.204;24.686;2023-07-13T02:54:14;99477.47;;;25.70;90.25
7668;BME280;3876;42.204;24.686;2023-07-13T02:56:41;99485.22;;;25.71;90.21
7668;BME280;3876;42.204;24.686;2023-07-13T02:59:09;99490.19;;;25.65;90.97
7668;BME280;3876;42.204;24.686;2023-07-13T03:01:35;99474.97;;;25.49;90.52
7668;BME280;3876;42.204;24.686;2023-07-13T03:04:04;99490.31;;;25.44;91.18
7668;BME280;3876;42.204;24.686;2023-07-13T03:06:31;99500.53;;;25.47;91.21
7668;BME280;3876;42.204;24.686;2023-07-13T03:08:58;99499.00;;;25.35;92.32
7668;BME280;3876;42.204;24.686;2023-07-13T03:11:25;99491.41;;;25.32;92.54
7668;BME280;3876;42.204;24.686;2023-07-13T03:13:52;99488.50;;;25.35;91.66
7668;BME280;3876;42.204;24.686;2023-07-13T03:16:20;99494.03;;;25.41;91.47
7668;BME280;3876;42.204;24.686;2023-07-13T03:18:47;99489.63;;;25.42;91.84
7668;BME280;3876;42.204;24.686;2023-07-13T03:21:16;99475.78;;;25.40;91.73
7668;BME280;3876;42.204;24.686;2023-07-13T03:23:43;99482.69;;;25.41;91.21
7668;BME280;3876;42.204;24.686;2023-07-13T03:26:12;99480.34;;;25.38;91.05
7668;BME280;3876;42.204;24.686;2023-07-13T03:28:39;99480.22;;;25.39;90.91
7668;BME280;3876;42.204;24.686;2023-07-13T03:31:08;99468.47;;;25.34;91.16
7668;BME280;3876;42.204;24.686;2023-07-13T03:33:36;99485.06;;;25.44;90.81
7668;BME280;3876;42.204;24.686;2023-07-13T03:36:03;99484.66;;;25.48;90.39
7668;BME280;3876;42.204;24.686;2023-07-13T03:38:32;99473.91;;;25.51;90.88
7668;BME280;3876;42.204;24.686;2023-07-13T03:40:59;99476.66;;;25.50;91.27
7668;BME280;3876;42.204;24.686;2023-07-13T03:43:26;99481.34;;;25.56;90.66
7668;BME280;3876;42.204;24.686;2023-07-13T03:45:53;99482.72;;;25.60;90.82
7668;BME280;3876;42.204;24.686;2023-07-13T03:48:20;99483.00;;;25.57;90.78
7668;BME280;3876;42.204;24.686;2023-07-13T03:50:47;99486.06;;;25.62;90.70
7668;BME280;3876;42.204;24.686;2023-07-13T03:53:14;99484.94;;;25.65;91.46
7668;BME280;3876;42.204;24.686;2023-07-13T03:55:42;99488.13;;;25.68;92.12
7668;BME280;3876;42.204;24.686;2023-07-13T03:58:28;99490.19;;;25.74;92.04
7668;BME280;3876;42.204;24.686;2023-07-13T04:00:56;99466.69;;;25.63;91.43
7668;BME280;3876;42.204;24.686;2023-07-13T04:03:24;99487.97;;;25.79;90.45
7668;BME280;3876;42.204;24.686;2023-07-13T04:05:53;99487.09;;;25.88;91.09
7668;BME280;3876;42.204;24.686;2023-07-13T04:08:20;99483.53;;;25.89;90.41
7668;BME280;3876;42.204;24.686;2023-07-13T04:10:48;99490.56;;;25.98;89.06
7668;BME280;3876;42.204;24.686;2023-07-13T04:13:15;99490.94;;;26.13;89.33
7668;BME280;3876;42.204;24.686;2023-07-13T04:15:41;99489.97;;;26.24;86.90
7668;BME280;3876;42.204;24.686;2023-07-13T04:18:08;99488.66;;;26.37;86.16
7668;BME280;3876;42.204;24.686;2023-07-13T04:20:35;99496.94;;;26.52;85.96
7668;BME280;3876;42.204;24.686;2023-07-13T04:23:02;99486.91;;;26.65;85.09
7668;BME280;3876;42.204;24.686;2023-07-13T04:25:29;99490.03;;;26.78;84.75
7668;BME280;3876;42.204;24.686;2023-07-13T04:27:57;99493.00;;;26.93;82.65
7668;BME280;3876;42.204;24.686;2023-07-13T04:30:24;99489.84;;;26.89;80.87
7668;BME280;3876;42.204;24.686;2023-07-13T04:32:52;99472.38;;;26.88;80.85
7668;BME280;3876;42.204;24.686;2023-07-13T04:35:19;99495.75;;;27.19;80.91
7668;BME280;3876;42.204;24.686;2023-07-13T04:37:47;99502.31;;;27.32;79.70
7668;BME280;3876;42.204;24.686;2023-07-13T04:40:15;99509.72;;;27.46;78.65
7668;BME280;3876;42.204;24.686;2023-07-13T04:42:43;99504.38;;;27.56;78.73
7668;BME280;3876;42.204;24.686;2023-07-13T04:45:12;99510.28;;;27.76;77.94
7668;BME280;3876;42.204;24.686;2023-07-13T04:47:39;99507.31;;;27.96;77.87
7668;BME280;3876;42.204;24.686;2023-07-13T04:50:07;99508.50;;;28.20;77.42
7668;BME280;3876;42.204;24.686;2023-07-13T04:52:34;99507.31;;;28.40;75.48
7668;BME280;3876;42.204;24.686;2023-07-13T04:55:01;99504.75;;;28.64;74.92
7668;BME280;3876;42.204;24.686;2023-07-13T04:57:28;99510.47;;;28.77;73.39
7668;BME280;3876;42.204;24.686;2023-07-13T04:59:54;99512.00;;;28.96;72.39
7668;BME280;3876;42.204;24.686;2023-07-13T05:02:22;99514.03;;;29.10;71.74
7668;BME280;3876;42.204;24.686;2023-07-13T05:04:49;99513.44;;;29.32;71.31
7668;BME280;3876;42.204;24.686;2023-07-13T05:07:16;99514.94;;;29.51;71.05
7668;BME280;3876;42.204;24.686;2023-07-13T05:09:43;99516.94;;;29.65;67.42
7668;BME280;3876;42.204;24.686;2023-07-13T05:12:10;99514.31;;;29.81;67.13
7668;BME280;3876;42.204;24.686;2023-07-13T05:14:37;99522.56;;;30.02;66.87
7668;BME280;3876;42.204;24.686;2023-07-13T05:17:04;99514.25;;;30.21;65.62
7668;BME280;3876;42.204;24.686;2023-07-13T05:19:32;99517.06;;;30.44;66.06
7668;BME280;3876;42.204;24.686;2023-07-13T05:22:00;99517.47;;;30.64;63.72
7668;BME280;3876;42.204;24.686;2023-07-13T05:24:28;99516.44;;;30.81;63.04
7668;BME280;3876;42.204;24.686;2023-07-13T05:26:55;99520.34;;;30.93;62.27
7668;BME280;3876;42.204;24.686;2023-07-13T05:29:22;99525.06;;;31.14;61.01
7668;BME280;3876;42.204;24.686;2023-07-13T05:31:49;99512.19;;;31.34;60.84
7668;BME280;3876;42.204;24.686;2023-07-13T05:34:16;99520.81;;;31.58;62.54
7668;BME280;3876;42.204;24.686;2023-07-13T05:36:44;99516.22;;;31.75;59.46
7668;BME280;3876;42.204;24.686;2023-07-13T05:39:11;99500.88;;;31.85;58.33
7668;BME280;3876;42.204;24.686;2023-07-13T05:41:38;99518.25;;;32.10;57.84
7668;BME280;3876;42.204;24.686;2023-07-13T05:44:05;99517.25;;;32.26;58.58
7668;BME280;3876;42.204;24.686;2023-07-13T05:46:31;99523.91;;;32.51;58.20
7668;BME280;3876;42.204;24.686;2023-07-13T05:48:59;99526.88;;;32.71;56.77
7668;BME280;3876;42.204;24.686;2023-07-13T05:51:25;99529.06;;;32.82;53.72
7668;BME280;3876;42.204;24.686;2023-07-13T05:53:53;99526.28;;;32.90;53.65
7668;BME280;3876;42.204;24.686;2023-07-13T05:56:20;99517.09;;;33.07;54.38
7668;BME280;3876;42.204;24.686;2023-07-13T05:58:48;99507.66;;;33.19;51.07
7668;BME280;3876;42.204;24.686;2023-07-13T06:01:15;99506.03;;;33.40;50.09
7668;BME280;3876;42.204;24.686;2023-07-13T06:03:42;99523.16;;;33.73;49.08
7668;BME280;3876;42.204;24.686;2023-07-13T06:06:10;99532.78;;;34.02;51.36
7668;BME280;3876;42.204;24.686;2023-07-13T06:08:37;99540.94;;;34.21;48.44
7668;BME280;3876;42.204;24.686;2023-07-13T06:11:07;99537.72;;;34.33;47.61
7668;BME280;3876;42.204;24.686;2023-07-13T06:13:36;99539.66;;;34.45;47.87
7668;BME280;3876;42.204;24.686;2023-07-13T06:16:03;99542.66;;;34.36;46.89
7668;BME280;3876;42.204;24.686;2023-07-13T06:18:31;99546.63;;;34.46;47.20
7668;BME280;3876;42.204;24.686;2023-07-13T06:20:58;99543.88;;;34.67;47.78
7668;BME280;3876;42.204;24.686;2023-07-13T06:23:25;99534.94;;;34.75;47.56
7668;BME280;3876;42.204;24.686;2023-07-13T06:25:51;99535.50;;;34.70;46.74
7668;BME280;3876;42.204;24.686;2023-07-13T06:28:20;99528.81;;;34.81;45.94
7668;BME280;3876;42.204;24.686;2023-07-13T06:30:46;99528.44;;;34.97;45.90
7668;BME280;3876;42.204;24.686;2023-07-13T06:33:13;99523.44;;;35.15;45.17
7668;BME280;3876;42.204;24.686;2023-07-13T06:35:40;99522.03;;;35.39;43.97
7668;BME280;3876;42.204;24.686;2023-07-13T06:38:07;99524.91;;;35.38;42.35
7668;BME280;3876;42.204;24.686;2023-07-13T06:40:33;99531.06;;;35.51;40.55
7668;BME280;3876;42.204;24.686;2023-07-13T06:43:00;99519.78;;;35.56;43.54
7668;BME280;3876;42.204;24.686;2023-07-13T06:45:28;99524.97;;;35.64;43.17
7668;BME280;3876;42.204;24.686;2023-07-13T06:47:55;99521.50;;;35.83;43.06
7668;BME280;3876;42.204;24.686;2023-07-13T06:50:22;99525.78;;;36.04;42.58
7668;BME280;3876;42.204;24.686;2023-07-13T06:52:48;99514.66;;;36.33;43.33
7668;BME280;3876;42.204;24.686;2023-07-13T06:55:15;99528.81;;;36.60;42.93
7668;BME280;3876;42.204;24.686;2023-07-13T06:57:42;99527.22;;;36.90;41.29
7668;BME280;3876;42.204;24.686;2023-07-13T07:00:10;99523.50;;;36.98;40.72
7668;BME280;3876;42.204;24.686;2023-07-13T07:02:38;99524.25;;;37.18;39.54
7668;BME280;3876;42.204;24.686;2023-07-13T07:05:05;99523.00;;;37.20;41.15
7668;BME280;3876;42.204;24.686;2023-07-13T07:07:32;99529.72;;;37.29;39.53
7668;BME280;3876;42.204;24.686;2023-07-13T07:09:59;99533.13;;;37.50;39.20
7668;BME280;3876;42.204;24.686;2023-07-13T07:12:26;99521.47;;;37.69;39.39
7668;BME280;3876;42.204;24.686;2023-07-13T07:14:58;99520.91;;;37.85;37.72
7668;BME280;3876;42.204;24.686;2023-07-13T07:17:25;99520.47;;;37.63;41.63
7668;BME280;3876;42.204;24.686;2023-07-13T07:19:53;99521.28;;;37.89;37.56
7668;BME280;3876;42.204;24.686;2023-07-13T07:22:20;99529.19;;;38.08;37.05
7668;BME280;3876;42.204;24.686;2023-07-13T07:24:47;99530.31;;;38.19;37.70
7668;BME280;3876;42.204;24.686;2023-07-13T07:27:14;99531.94;;;38.45;36.56
7668;BME280;3876;42.204;24.686;2023-07-13T07:29:40;99531.88;;;38.51;36.61
7668;BME280;3876;42.204;24.686;2023-07-13T07:32:08;99536.22;;;38.46;36.73
7668;BME280;3876;42.204;24.686;2023-07-13T07:34:34;99525.41;;;38.16;36.84
7668;BME280;3876;42.204;24.686;2023-07-13T07:37:03;99516.56;;;38.15;39.16
7668;BME280;3876;42.204;24.686;2023-07-13T07:39:30;99522.09;;;37.96;36.89
7668;BME280;3876;42.204;24.686;2023-07-13T07:41:57;99514.66;;;37.98;37.34
7668;BME280;3876;42.204;24.686;2023-07-13T07:44:23;99504.84;;;37.85;35.10
7668;BME280;3876;42.204;24.686;2023-07-13T07:46:52;99513.13;;;38.08;34.22
7668;BME280;3876;42.204;24.686;2023-07-13T07:49:19;99510.38;;;37.90;33.94
7668;BME280;3876;42.204;24.686;2023-07-13T07:51:45;99506.03;;;37.96;35.51
7668;BME280;3876;42.204;24.686;2023-07-13T07:54:14;99504.53;;;37.75;37.50
7668;BME280;3876;42.204;24.686;2023-07-13T07:56:41;99509.69;;;38.01;34.08
7668;BME280;3876;42.204;24.686;2023-07-13T07:59:08;99510.75;;;38.18;35.43
7668;BME280;3876;42.204;24.686;2023-07-13T08:01:35;99509.75;;;38.38;32.89
7668;BME280;3876;42.204;24.686;2023-07-13T08:04:02;99501.28;;;38.41;33.53
7668;BME280;3876;42.204;24.686;2023-07-13T08:06:29;99504.09;;;38.64;34.37
7668;BME280;3876;42.204;24.686;2023-07-13T08:08:58;99502.16;;;38.71;33.71
7668;BME280;3876;42.204;24.686;2023-07-13T08:11:27;99504.03;;;39.00;32.85
7668;BME280;3876;42.204;24.686;2023-07-13T08:13:54;99502.91;;;39.08;32.68
7668;BME280;3876;42.204;24.686;2023-07-13T08:16:21;99501.78;;;39.15;34.24
7668;BME280;3876;42.204;24.686;2023-07-13T08:18:48;99507.31;;;39.02;34.04
7668;BME280;3876;42.204;24.686;2023-07-13T08:21:15;99492.97;;;39.26;33.55
7668;BME280;3876;42.204;24.686;2023-07-13T08:23:41;99488.38;;;39.57;32.91
7668;BME280;3876;42.204;24.686;2023-07-13T08:26:09;99494.66;;;39.51;31.70
7668;BME280;3876;42.204;24.686;2023-07-13T08:28:37;99484.03;;;39.56;32.70
7668;BME280;3876;42.204;24.686;2023-07-13T08:31:05;99491.56;;;39.88;30.72
7668;BME280;3876;42.204;24.686;2023-07-13T08:33:33;99495.41;;;40.04;30.52
7668;BME280;3876;42.204;24.686;2023-07-13T08:36:00;99479.41;;;39.98;30.30
7668;BME280;3876;42.204;24.686;2023-07-13T08:38:27;99481.19;;;40.15;30.79
7668;BME280;3876;42.204;24.686;2023-07-13T08:40:55;99484.69;;;40.16;32.63
7668;BME280;3876;42.204;24.686;2023-07-13T08:43:26;99480.91;;;40.40;31.00
7668;BME280;3876;42.204;24.686;2023-07-13T08:46:02;99474.59;;;40.58;29.69
7668;BME280;3876;42.204;24.686;2023-07-13T08:51:59;99471.78;;;40.53;30.01
7668;BME280;3876;42.204;24.686;2023-07-13T08:54:30;99468.16;;;40.47;31.63
7668;BME280;3876;42.204;24.686;2023-07-13T08:56:59;99481.19;;;40.15;30.76
7668;BME280;3876;42.204;24.686;2023-07-13T08:59:30;99476.38;;;40.17;29.63
7668;BME280;3876;42.204;24.686;2023-07-13T09:02:23;99473.44;;;40.30;29.68
7668;BME280;3876;42.204;24.686;2023-07-13T09:04:56;99462.22;;;40.33;29.71
7668;BME280;3876;42.204;24.686;2023-07-13T09:07:38;99463.13;;;40.51;29.20
7668;BME280;3876;42.204;24.686;2023-07-13T09:10:14;99468.47;;;40.74;29.79
7668;BME280;3876;42.204;24.686;2023-07-13T09:12:55;99467.31;;;40.98;28.26
7668;BME280;3876;42.204;24.686;2023-07-13T09:15:28;99466.34;;;41.04;29.93
7668;BME280;3876;42.204;24.686;2023-07-13T09:18:03;99459.53;;;41.13;31.16
7668;BME280;3876;42.204;24.686;2023-07-13T09:20:34;99461.75;;;41.16;29.72
7668;BME280;3876;42.204;24.686;2023-07-13T09:23:05;99457.03;;;41.40;27.56
7668;BME280;3876;42.204;24.686;2023-07-13T09:25:35;99447.97;;;41.63;28.08
7668;BME280;3876;42.204;24.686;2023-07-13T09:28:10;99439.72;;;41.69;28.88
7668;BME280;3876;42.204;24.686;2023-07-13T09:30:45;99437.47;;;41.78;28.75
7668;BME280;3876;42.204;24.686;2023-07-13T09:33:14;99433.34;;;41.92;27.74
7668;BME280;3876;42.204;24.686;2023-07-13T09:35:41;99431.84;;;42.01;27.47
7668;BME280;3876;42.204;24.686;2023-07-13T09:38:13;99421.97;;;42.07;27.09
7668;BME280;3876;42.204;24.686;2023-07-13T09:41:01;99419.72;;;42.20;27.73
7668;BME280;3876;42.204;24.686;2023-07-13T09:43:30;99423.38;;;42.31;27.07
7668;BME280;3876;42.204;24.686;2023-07-13T09:45:57;99414.63;;;42.02;25.58
7668;BME280;3876;42.204;24.686;2023-07-13T09:48:34;99410.75;;;41.93;27.50
7668;BME280;3876;42.204;24.686;2023-07-13T09:51:07;99405.78;;;41.85;27.35
7668;BME280;3876;42.204;24.686;2023-07-13T09:53:41;99396.31;;;42.04;27.87
7668;BME280;3876;42.204;24.686;2023-07-13T09:56:19;99402.84;;;41.86;27.97
7668;BME280;3876;42.204;24.686;2023-07-13T09:58:46;99398.97;;;41.99;26.20
7668;BME280;3876;42.204;24.686;2023-07-13T10:01:13;99390.88;;;41.99;25.63
7668;BME280;3876;42.204;24.686;2023-07-13T10:03:52;99391.03;;;41.71;25.16
7668;BME280;3876;42.204;24.686;2023-07-13T10:06:21;99385.31;;;41.67;25.49
7668;BME280;3876;42.204;24.686;2023-07-13T10:08:50;99376.72;;;41.87;27.50
7668;BME280;3876;42.204;24.686;2023-07-13T10:11:20;99379.06;;;42.00;29.51
7668;BME280;3876;42.204;24.686;2023-07-13T10:13:51;99381.47;;;41.80;27.90
7668;BME280;3876;42.204;24.686;2023-07-13T10:16:18;99381.34;;;41.92;27.02
7668;BME280;3876;42.204;24.686;2023-07-13T10:18:48;99394.41;;;42.21;25.91
7668;BME280;3876;42.204;24.686;2023-07-13T10:21:18;99379.00;;;42.38;23.96
7668;BME280;3876;42.204;24.686;2023-07-13T10:23:50;99391.28;;;42.29;25.27
7668;BME280;3876;42.204;24.686;2023-07-13T10:26:27;99394.41;;;42.21;24.35
7668;BME280;3876;42.204;24.686;2023-07-13T10:28:57;99386.41;;;42.26;23.91
7668;BME280;3876;42.204;24.686;2023-07-13T10:31:26;99375.03;;;42.03;24.13
7668;BME280;3876;42.204;24.686;2023-07-13T10:33:54;99361.19;;;41.94;24.73
7668;BME280;3876;42.204;24.686;2023-07-13T10:36:30;99365.78;;;41.77;25.51
7668;BME280;3876;42.204;24.686;2023-07-13T10:38:59;99363.25;;;41.87;24.99
7668;BME280;3876;42.204;24.686;2023-07-13T10:41:32;99360.19;;;42.00;24.23
7668;BME280;3876;42.204;24.686;2023-07-13T10:44:01;99356.03;;;42.14;27.22
7668;BME280;3876;42.204;24.686;2023-07-13T10:46:29;99367.97;;;42.18;26.50
7668;BME280;3876;42.204;24.686;2023-07-13T10:49:00;99363.22;;;42.25;25.72
7668;BME280;3876;42.204;24.686;2023-07-13T10:51:30;99349.88;;;42.40;25.83
7668;BME280;3876;42.204;24.686;2023-07-13T10:54:14;99346.03;;;42.58;24.08
7668;BME280;3876;42.204;24.686;2023-07-13T10:56:42;99339.00;;;42.57;24.67
7668;BME280;3876;42.204;24.686;2023-07-13T10:59:11;99336.53;;;42.56;24.11
7668;BME280;3876;42.204;24.686;2023-07-13T11:01:48;99336.53;;;42.56;24.11
7668;BME280;3876;42.204;24.686;2023-07-13T11:04:18;99328.72;;;42.54;24.14
7668;BME280;3876;42.204;24.686;2023-07-13T11:06:50;99328.72;;;42.54;23.95
7668;BME280;3876;42.204;24.686;2023-07-13T11:09:28;99329.56;;;42.55;24.15
7668;BME280;3876;42.204;24.686;2023-07-13T11:11:59;99326.59;;;42.56;23.94
7668;BME280;3876;42.204;24.686;2023-07-13T11:14:29;99326.41;;;42.63;24.60
7668;BME280;3876;42.204;24.686;2023-07-13T11:16:57;99324.81;;;42.40;23.80
7668;BME280;3876;42.204;24.686;2023-07-13T11:19:40;99320.28;;;41.97;24.43
7668;BME280;3876;42.204;24.686;2023-07-13T11:22:16;99321.06;;;41.98;24.83
7668;BME280;3876;42.204;24.686;2023-07-13T11:24:58;99316.78;;;42.18;24.34
7668;BME280;3876;42.204;24.686;2023-07-13T11:27:40;99310.63;;;42.23;23.10
7668;BME280;3876;42.204;24.686;2023-07-13T11:30:25;99311.44;;;42.02;25.16
7668;BME280;3876;42.204;24.686;2023-07-13T11:33:10;99306.13;;;41.85;25.69
7668;BME280;3876;42.204;24.686;2023-07-13T11:35:44;99301.56;;;41.85;25.92
7668;BME280;3876;42.204;24.686;2023-07-13T11:38:14;99314.91;;;41.97;24.56
7668;BME280;3876;42.204;24.686;2023-07-13T11:40:44;99306.81;;;42.19;24.29
7668;BME280;3876;42.204;24.686;2023-07-13T11:43:14;99291.59;;;42.34;24.63
7668;BME280;3876;42.204;24.686;2023-07-13T11:45:41;99301.13;;;42.42;23.92
7668;BME280;3876;42.204;24.686;2023-07-13T11:48:27;99304.63;;;42.43;24.25
7668;BME280;3876;42.204;24.686;2023-07-13T11:51:00;99296.06;;;42.51;23.47
7668;BME280;3876;42.204;24.686;2023-07-13T11:53:38;99282.06;;;42.54;24.31
7668;BME280;3876;42.204;24.686;2023-07-13T11:56:06;99281.97;;;42.70;25.22
7668;BME280;3876;42.204;24.686;2023-07-13T11:58:33;99275.25;;;42.73;23.83
7668;BME280;3876;42.204;24.686;2023-07-13T12:01:02;99277.88;;;42.63;23.62
7668;BME280;3876;42.204;24.686;2023-07-13T12:03:32;99268.91;;;42.57;24.43
7668;BME280;3876;42.204;24.686;2023-07-13T12:06:03;99263.56;;;42.62;24.82
7668;BME280;3876;42.204;24.686;2023-07-13T12:08:31;99270.34;;;42.65;25.14
7668;BME280;3876;42.204;24.686;2023-07-13T12:11:05;99261.47;;;42.69;23.50
7668;BME280;3876;42.204;24.686;2023-07-13T12:13:37;99266.66;;;42.76;23.21
7668;BME280;3876;42.204;24.686;2023-07-13T12:16:12;99256.22;;;42.89;22.93
7668;BME280;3876;42.204;24.686;2023-07-13T12:18:42;99239.59;;;42.66;23.22
7668;BME280;3876;42.204;24.686;2023-07-13T12:21:14;99254.59;;;42.88;23.19
7668;BME280;3876;42.204;24.686;2023-07-13T12:23:44;99244.78;;;43.09;22.72
7668;BME280;3876;42.204;24.686;2023-07-13T12:26:15;99248.09;;;43.21;23.47
7668;BME280;3876;42.204;24.686;2023-07-13T12:28:45;99250.31;;;43.29;24.02
7668;BME280;3876;42.204;24.686;2023-07-13T12:31:32;99232.72;;;43.22;22.95
7668;BME280;3876;42.204;24.686;2023-07-13T12:34:01;99242.75;;;43.31;23.23
7668;BME280;3876;42.204;24.686;2023-07-13T12:36:35;99247.09;;;43.37;22.69
7668;BME280;3876;42.204;24.686;2023-07-13T12:39:12;99241.22;;;43.46;22.29
7668;BME280;3876;42.204;24.686;2023-07-13T12:41:39;99237.28;;;43.21;22.91
7668;BME280;3876;42.204;24.686;2023-07-13T12:44:11;99232.94;;;43.10;23.68
7668;BME280;3876;42.204;24.686;2023-07-13T12:46:38;99233.41;;;43.02;24.11
7668;BME280;3876;42.204;24.686;2023-07-13T12:49:07;99231.84;;;43.11;23.80
7668;BME280;3876;42.204;24.686;2023-07-13T12:51:36;99217.28;;;43.12;24.30
7668;BME280;3876;42.204;24.686;2023-07-13T12:54:14;99232.47;;;43.23;23.20
7668;BME280;3876;42.204;24.686;2023-07-13T12:56:42;99226.84;;;43.35;22.93
7668;BME280;3876;42.204;24.686;2023-07-13T12:59:16;99231.97;;;43.36;22.39
7668;BME280;3876;42.204;24.686;2023-07-13T13:01:43;99231.13;;;43.31;22.08
7668;BME280;3876;42.204;24.686;2023-07-13T13:04:11;99227.06;;;43.23;21.49
7668;BME280;3876;42.204;24.686;2023-07-13T13:07:03;99227.31;;;43.22;21.09
7668;BME280;3876;42.204;24.686;2023-07-13T13:09:32;99218.59;;;43.05;21.94
7668;BME280;3876;42.204;24.686;2023-07-13T13:11:59;99214.41;;;42.87;22.01
7668;BME280;3876;42.204;24.686;2023-07-13T13:14:26;99217.09;;;42.87;22.11
7668;BME280;3876;42.204;24.686;2023-07-13T13:16:53;99204.38;;;42.82;21.80
7668;BME280;3876;42.204;24.686;2023-07-13T13:19:23;99206.03;;;42.88;21.66
7668;BME280;3876;42.204;24.686;2023-07-13T13:21:54;99203.25;;;43.10;22.41
7668;BME280;3876;42.204;24.686;2023-07-13T13:24:24;99188.19;;;43.24;21.90